Time;durP1;ratioP1;P1;durP2;ratioP2;P2;SDS_P1;SDS_P2;PMS_P1;PMS_P2;Temp;Humidity;BMP_temperature;BMP_pressure;BME280_temperature;BME280_humidity;BME280_pressure;Samples;Min_cycle;Max_cycle;Signal;HPM_P1;HPM_P2
2021/05/24 00:00:09;;;;;;;1.00;0.70;;;21.30;51.80;;;;;;10372388;28;20218;-15
2021/05/24 00:05:33;;;;;;;1.33;0.87;;;21.30;51.80;;;;;;10352365;23;20234;-15
2021/05/24 00:10:55;;;;;;;1.13;0.80;;;21.20;51.80;;;;;;10247485;28;20204;-15
2021/05/24 00:16:16;;;;;;;1.07;0.80;;;21.20;51.90;;;;;;10249491;28;20274;-15
2021/05/24 00:21:39;;;;;;;0.93;0.70;;;21.20;51.90;;;;;;10208766;28;20206;-14
2021/05/24 00:27:01;;;;;;;1.00;0.60;;;21.20;51.80;;;;;;10207231;28;20701;-15
2021/05/24 00:32:23;;;;;;;0.70;0.67;;;21.20;51.80;;;;;;10205503;29;20205;-14
2021/05/24 00:37:45;;;;;;;1.37;0.90;;;21.30;51.80;;;;;;10207171;28;20229;-15
2021/05/24 00:43:08;;;;;;;1.23;0.80;;;21.20;51.70;;;;;;10385936;28;20259;-15
2021/05/24 00:48:30;;;;;;;1.07;0.73;;;21.20;51.70;;;;;;10454546;28;20192;-15
2021/05/24 00:53:52;;;;;;;1.40;0.77;;;21.20;51.80;;;;;;10437082;28;20763;-15
2021/05/24 00:59:15;;;;;;;1.87;0.80;;;21.20;51.70;;;;;;10208806;28;20220;-15
2021/05/24 01:04:36;;;;;;;1.73;0.73;;;21.20;51.80;;;;;;10205661;28;20233;-15
2021/05/24 01:09:59;;;;;;;1.93;0.90;;;21.20;51.70;;;;;;10204930;28;20197;-15
2021/05/24 01:15:21;;;;;;;0.70;0.70;;;21.20;51.60;;;;;;10204399;28;20236;-15
2021/05/24 01:20:43;;;;;;;1.60;0.87;;;21.20;51.60;;;;;;10204928;28;20221;-15
2021/05/24 01:26:06;;;;;;;1.33;0.90;;;21.20;51.60;;;;;;10205492;28;20217;-16
2021/05/24 01:31:27;;;;;;;0.90;0.70;;;21.20;51.70;;;;;;10205395;29;20197;-15
2021/05/24 01:36:49;;;;;;;0.90;0.70;;;21.20;51.80;;;;;;10205232;29;20621;-16
2021/05/24 01:42:11;;;;;;;1.93;1.00;;;21.20;51.70;;;;;;10342956;28;20372;-15
2021/05/24 01:47:33;;;;;;;1.43;0.83;;;21.20;51.60;;;;;;10453724;28;20216;-15
2021/05/24 01:52:55;;;;;;;0.93;0.80;;;21.20;51.60;;;;;;10452662;28;20208;-15
2021/05/24 01:58:19;;;;;;;0.83;0.70;;;21.30;51.50;;;;;;10452025;28;20631;-16
2021/05/24 02:03:44;;;;;;;0.60;0.60;;;21.20;51.60;;;;;;10451600;28;20225;-16
2021/05/24 02:09:06;;;;;;;1.13;0.83;;;21.20;51.70;;;;;;10452273;28;20221;-15
2021/05/24 02:14:28;;;;;;;1.13;0.80;;;21.20;52.10;;;;;;10451574;28;20212;-15
2021/05/24 02:19:52;;;;;;;0.70;0.63;;;21.20;51.60;;;;;;10278622;28;20648;-15
2021/05/24 02:25:13;;;;;;;0.80;0.80;;;21.20;51.70;;;;;;10248267;29;20221;-15
2021/05/24 02:30:36;;;;;;;0.87;0.60;;;21.20;51.70;;;;;;10250712;28;20201;-15
2021/05/24 02:35:59;;;;;;;0.63;0.63;;;21.20;51.60;;;;;;10249822;28;20221;-15
2021/05/24 02:41:21;;;;;;;1.97;0.90;;;21.20;51.60;;;;;;10323243;28;20280;-15
2021/05/24 02:46:44;;;;;;;0.90;0.60;;;21.20;51.70;;;;;;10458176;28;20686;-15
2021/05/24 02:52:06;;;;;;;0.60;0.60;;;21.20;51.70;;;;;;10458722;28;20204;-13
2021/05/24 02:57:27;;;;;;;0.80;0.80;;;21.10;51.60;;;;;;10319700;28;20224;-15
2021/05/24 03:02:50;;;;;;;0.90;0.73;;;21.20;51.60;;;;;;10250513;28;20199;-16
2021/05/24 03:08:12;;;;;;;1.00;0.60;;;21.20;51.50;;;;;;10249772;28;20201;-15
2021/05/24 03:13:34;;;;;;;0.73;0.67;;;21.20;51.60;;;;;;10249027;29;20220;-15
2021/05/24 03:18:56;;;;;;;1.30;0.83;;;21.10;51.70;;;;;;10249979;28;20220;-15
2021/05/24 03:24:21;;;;;;;1.50;0.80;;;21.10;51.60;;;;;;10248100;28;20224;-15
2021/05/24 03:29:42;;;;;;;0.90;0.73;;;21.10;51.90;;;;;;10248267;29;20192;-15
2021/05/24 03:35:07;;;;;;;1.10;1.00;;;21.10;51.70;;;;;;10247387;28;20216;-15
2021/05/24 03:40:29;;;;;;;1.27;0.90;;;21.20;51.60;;;;;;10289334;28;20220;-16
2021/05/24 03:45:50;;;;;;;1.03;0.80;;;21.20;51.40;;;;;;10455969;28;20228;-15
2021/05/24 03:51:13;;;;;;;1.30;0.73;;;21.20;51.50;;;;;;10456723;28;20189;-16
2021/05/24 03:56:35;;;;;;;0.90;0.70;;;21.20;51.50;;;;;;10456349;28;20217;-15
2021/05/24 04:01:57;;;;;;;1.23;0.70;;;21.20;51.50;;;;;;10455952;28;20204;-15
2021/05/24 04:07:23;;;;;;;0.80;0.70;;;21.10;51.50;;;;;;10455776;28;20225;-16
2021/05/24 04:12:44;;;;;;;0.60;0.60;;;21.10;51.60;;;;;;10249829;28;20333;-15
2021/05/24 04:18:13;;;;;;;0.53;0.53;;;21.00;51.80;;;;;;10207953;28;20300;-15
2021/05/24 04:23:35;;;;;;;1.00;0.70;;;21.10;51.70;;;;;;10210413;28;20209;-15
2021/05/24 04:28:57;;;;;;;0.70;0.70;;;21.10;51.50;;;;;;10207463;28;20574;-15
2021/05/24 04:34:18;;;;;;;0.57;0.57;;;21.10;51.60;;;;;;10206962;29;20221;-15
2021/05/24 04:39:43;;;;;;;0.50;0.50;;;21.10;51.70;;;;;;10229704;28;20574;-15
2021/05/24 04:45:06;;;;;;;0.70;0.50;;;21.00;51.70;;;;;;10303202;28;20221;-16
2021/05/24 04:50:27;;;;;;;0.70;0.57;;;21.20;51.60;;;;;;10243120;28;20193;-15
2021/05/24 04:55:50;;;;;;;0.73;0.60;;;21.00;51.70;;;;;;10244189;29;20224;-15
2021/05/24 05:01:11;;;;;;;0.73;0.70;;;21.10;51.80;;;;;;10245496;28;20200;-13
2021/05/24 05:06:33;;;;;;;0.87;0.60;;;21.10;51.60;;;;;;10209901;28;20221;-15
2021/05/24 05:11:56;;;;;;;0.80;0.70;;;21.10;51.50;;;;;;10205511;29;20209;-15
2021/05/24 05:17:17;;;;;;;0.70;0.70;;;21.10;51.70;;;;;;10204911;29;20236;-15
2021/05/24 05:22:39;;;;;;;0.60;0.57;;;21.00;51.80;;;;;;10205486;29;20208;-16
2021/05/24 05:28:01;;;;;;;0.60;0.50;;;21.00;51.80;;;;;;10205697;29;20728;-15
2021/05/24 05:33:23;;;;;;;0.70;0.70;;;21.10;51.80;;;;;;10205761;28;20276;-15
2021/05/24 05:38:45;;;;;;;1.53;0.70;;;21.10;51.70;;;;;;10205334;28;20606;-15
2021/05/24 05:44:07;;;;;;;1.03;0.60;;;21.10;51.60;;;;;;10433358;28;20237;-15
2021/05/24 05:49:29;;;;;;;0.70;0.60;;;21.10;51.70;;;;;;10451162;28;20185;-15
2021/05/24 05:54:51;;;;;;;1.27;0.70;;;21.00;51.80;;;;;;10452046;28;20585;-15
2021/05/24 06:00:14;;;;;;;0.93;0.50;;;21.10;51.70;;;;;;10452284;28;20212;-15
2021/05/24 06:05:36;;;;;;;0.60;0.60;;;21.10;51.70;;;;;;10396623;23;20664;-15
2021/05/24 06:10:58;;;;;;;0.60;0.60;;;21.10;51.80;;;;;;10450532;28;20551;-14
2021/05/24 06:16:20;;;;;;;0.93;0.70;;;21.10;51.80;;;;;;10450747;28;20686;-14
2021/05/24 06:21:42;;;;;;;0.97;0.70;;;21.10;51.90;;;;;;10451052;28;20201;-15
2021/05/24 06:27:04;;;;;;;0.70;0.70;;;21.00;52.00;;;;;;10451488;28;20213;-15
2021/05/24 06:32:26;;;;;;;0.63;0.50;;;21.00;51.90;;;;;;10451864;28;20193;-15
2021/05/24 06:37:48;;;;;;;0.67;0.53;;;21.10;52.00;;;;;;10448775;28;20232;-15
2021/05/24 06:43:10;;;;;;;0.70;0.70;;;21.10;51.70;;;;;;10444275;28;20213;-15
2021/05/24 06:48:32;;;;;;;0.57;0.47;;;21.10;51.80;;;;;;10449477;28;20206;-15
2021/05/24 06:53:54;;;;;;;1.10;0.60;;;21.10;51.70;;;;;;10449531;28;20228;-15
2021/05/24 06:59:16;;;;;;;1.93;0.60;;;21.20;51.70;;;;;;10451585;28;20616;-15
2021/05/24 07:04:38;;;;;;;0.70;0.60;;;21.30;51.40;;;;;;10449749;28;20322;-16
2021/05/24 07:10:00;;;;;;;0.90;0.50;;;21.30;51.30;;;;;;10449595;28;20193;-15
2021/05/24 07:15:21;;;;;;;1.73;0.73;;;21.30;51.30;;;;;;10457969;28;20252;-15
2021/05/24 07:20:44;;;;;;;0.50;0.50;;;21.20;51.50;;;;;;10456885;28;20223;-15
2021/05/24 07:26:05;;;;;;;3.07;0.70;;;21.30;51.50;;;;;;10456664;28;20283;-14
2021/05/24 07:31:27;;;;;;;1.10;0.70;;;21.30;51.50;;;;;;10457980;28;20247;-14
2021/05/24 07:36:49;;;;;;;3.80;0.60;;;21.30;51.30;;;;;;10424882;28;20218;-14
2021/05/24 07:42:11;;;;;;;1.47;0.73;;;21.30;51.40;;;;;;10457518;28;20204;-11
2021/05/24 07:47:33;;;;;;;4.33;1.03;;;21.20;51.50;;;;;;10456199;28;20212;-12
2021/05/24 07:52:56;;;;;;;1.53;0.60;;;21.00;52.30;;;;;;10456357;28;20201;-14
2021/05/24 07:58:18;;;;;;;1.53;0.60;;;20.90;52.90;;;;;;10455207;28;20223;-15
2021/05/24 08:03:39;;;;;;;1.47;0.60;;;21.00;52.90;;;;;;10447821;28;20582;-12
2021/05/24 08:09:02;;;;;;;2.27;0.80;;;20.90;52.80;;;;;;10437139;28;20197;-12
2021/05/24 08:14:23;;;;;;;4.43;0.63;;;20.90;52.80;;;;;;10435905;28;20221;-11
2021/05/24 08:19:45;;;;;;;1.13;0.60;;;20.90;52.90;;;;;;10414136;28;20213;-13
2021/05/24 08:25:09;;;;;;;1.03;0.60;;;21.00;52.80;;;;;;10414398;28;20210;-12
2021/05/24 08:30:32;;;;;;;1.73;0.60;;;20.90;52.60;;;;;;10413686;28;20240;-14
2021/05/24 08:35:55;;;;;;;2.77;0.60;;;21.00;52.70;;;;;;10413246;28;20304;-13
2021/05/24 08:41:18;;;;;;;1.00;0.53;;;21.10;52.40;;;;;;10432712;28;20744;-12
2021/05/24 08:46:40;;;;;;;3.67;0.63;;;20.90;52.50;;;;;;10454868;28;20217;-13
2021/05/24 08:52:01;;;;;;;5.03;1.03;;;21.00;52.90;;;;;;10454913;28;20199;-12
2021/05/24 08:57:24;;;;;;;4.20;0.83;;;21.00;52.50;;;;;;10453706;28;20271;-13
2021/05/24 09:02:47;;;;;;;4.03;0.60;;;21.10;51.80;;;;;;10450525;28;20205;-14
2021/05/24 09:08:09;;;;;;;2.77;0.40;;;21.30;46.80;;;;;;10454206;28;20750;-17
2021/05/24 09:13:34;;;;;;;2.90;0.70;;;21.40;46.10;;;;;;10451637;28;20619;-12
2021/05/24 09:19:26;;;;;;;0.70;0.43;;;21.30;48.50;;;;;;10452001;28;20213;-15
2021/05/24 09:24:50;;;;;;;1.07;0.50;;;21.20;47.60;;;;;;10383271;28;20262;-16
2021/05/24 09:30:13;;;;;;;2.00;0.67;;;21.10;48.20;;;;;;10461178;28;20196;-15
2021/05/24 09:35:35;;;;;;;2.30;0.50;;;21.10;48.60;;;;;;10492172;28;20212;-15
2021/05/24 09:40:59;;;;;;;1.50;0.50;;;21.20;48.70;;;;;;10476017;28;20251;-14
2021/05/24 09:46:23;;;;;;;4.40;0.60;;;21.30;48.20;;;;;;10452208;28;20219;-15
2021/05/24 09:51:46;;;;;;;3.30;0.70;;;21.60;46.10;;;;;;10449748;28;20636;-13
2021/05/24 09:57:10;;;;;;;2.47;0.70;;;21.60;46.90;;;;;;10451054;28;20593;-14
2021/05/24 10:02:43;;;;;;;2.20;0.40;;;21.60;46.10;;;;;;10451959;28;20196;-13
2021/05/24 10:08:05;;;;;;;1.50;0.40;;;21.60;46.30;;;;;;10450723;28;20239;-13
2021/05/24 10:13:28;;;;;;;4.77;0.60;;;21.50;45.40;;;;;;10450758;28;20666;-16
2021/05/24 10:18:50;;;;;;;1.17;0.40;;;21.70;43.10;;;;;;10430896;28;20217;-15
2021/05/24 10:24:13;;;;;;;2.40;0.50;;;21.60;43.30;;;;;;10439778;28;20228;-15
2021/05/24 10:29:35;;;;;;;1.80;0.50;;;21.70;43.20;;;;;;10490316;28;20188;-15
2021/05/24 10:34:59;;;;;;;1.23;0.40;;;21.80;43.20;;;;;;10491640;28;20212;-14
2021/05/24 10:40:21;;;;;;;1.20;0.30;;;21.80;43.30;;;;;;10479416;28;20239;-16
2021/05/24 10:45:42;;;;;;;1.90;0.40;;;21.70;43.50;;;;;;10456066;28;20685;-15
2021/05/24 10:51:10;;;;;;;1.23;0.37;;;21.70;43.30;;;;;;10458370;28;20189;-15
2021/05/24 10:56:32;;;;;;;1.47;0.30;;;21.60;44.50;;;;;;10459049;28;20221;-15
2021/05/24 11:02:00;;;;;;;2.73;0.60;;;21.50;45.00;;;;;;10457375;28;20200;-14
2021/05/24 11:07:25;;;;;;;0.67;0.30;;;21.40;43.60;;;;;;10477962;28;20224;-14
2021/05/24 11:12:47;;;;;;;1.00;0.60;;;22.20;35.60;;;;;;10487570;28;20201;-17
2021/05/24 11:18:14;;;;;;;1.50;0.60;;;21.90;41.60;;;;;;10453599;28;20624;-12
2021/05/24 11:23:46;;;;;;;1.53;0.80;;;21.70;42.70;;;;;;10452884;28;20216;-13
2021/05/24 11:29:11;;;;;;;4.70;1.87;;;21.70;43.70;;;;;;10463520;28;20561;-14
2021/05/24 11:34:35;;;;;;;8.00;2.50;;;21.60;43.80;;;;;;10455485;28;20220;-16
2021/05/24 11:39:58;;;;;;;15.40;3.50;;;21.50;45.50;;;;;;10455189;28;20690;-11
2021/05/24 11:45:23;;;;;;;13.60;3.43;;;21.50;46.00;;;;;;10454227;28;20244;-14
2021/05/24 11:50:50;;;;;;;10.57;3.30;;;21.40;46.40;;;;;;10456705;28;20243;-14
2021/05/24 11:56:14;;;;;;;13.33;3.87;;;21.30;47.30;;;;;;10470343;28;20213;-14
2021/05/24 12:01:35;;;;;;;8.80;2.93;;;21.40;47.60;;;;;;10495489;28;20305;-18
2021/05/24 12:07:01;;;;;;;11.20;3.47;;;21.30;48.00;;;;;;10495850;28;20231;-14
2021/05/24 12:12:25;;;;;;;9.47;2.93;;;21.20;48.00;;;;;;10469842;28;20777;-14
2021/05/24 12:17:51;;;;;;;7.37;3.13;;;21.10;49.10;;;;;;10414301;28;20686;-16
2021/05/24 12:23:14;;;;;;;6.80;3.30;;;21.10;48.90;;;;;;10479820;22;20252;-13
2021/05/24 12:28:37;;;;;;;6.33;2.67;;;21.10;48.90;;;;;;10454004;28;20197;-13
2021/05/24 12:34:00;;;;;;;6.80;2.60;;;21.10;48.90;;;;;;10457529;28;20224;-17
2021/05/24 12:39:23;;;;;;;6.63;3.30;;;21.20;49.00;;;;;;10453033;28;20213;-16
2021/05/24 12:44:46;;;;;;;6.50;2.80;;;21.20;48.90;;;;;;10412268;28;20241;-15
2021/05/24 12:50:11;;;;;;;6.27;2.77;;;21.10;49.70;;;;;;10413683;28;20566;-15
2021/05/24 12:55:33;;;;;;;7.77;3.03;;;21.20;49.40;;;;;;10429733;28;20221;-15
2021/05/24 13:00:58;;;;;;;5.27;2.63;;;21.20;49.40;;;;;;10439956;28;20278;-15
2021/05/24 13:06:20;;;;;;;5.87;3.20;;;21.30;49.20;;;;;;10453133;28;20202;-15
2021/05/24 13:11:54;;;;;;;3.93;2.67;;;21.20;49.40;;;;;;10453549;28;20208;-15
2021/05/24 13:17:24;;;;;;;3.27;2.30;;;21.20;49.60;;;;;;10411626;28;20305;-15
2021/05/24 13:28:52;;;;;;;3.83;2.40;;;21.30;49.70;;;;;;10411580;28;20265;-15
2021/05/24 13:34:14;;;;;;;4.90;2.30;;;21.30;49.70;;;;;;10411506;28;20281;-16
2021/05/24 13:39:36;;;;;;;3.67;2.50;;;21.20;49.60;;;;;;10416623;28;20290;-17
2021/05/24 13:44:57;;;;;;;2.90;2.03;;;21.10;49.70;;;;;;10450442;28;20227;-16
2021/05/24 13:50:20;;;;;;;5.33;3.00;;;21.10;50.00;;;;;;10452848;28;20200;-15
2021/05/24 13:55:42;;;;;;;3.60;2.37;;;21.10;49.90;;;;;;10452497;28;20225;-15
2021/05/24 14:01:04;;;;;;;5.73;2.20;;;21.10;50.10;;;;;;10452801;28;20231;-15
2021/05/24 14:06:26;;;;;;;2.83;2.20;;;21.20;50.20;;;;;;10450607;28;20212;-16
2021/05/24 14:11:48;;;;;;;3.97;2.50;;;21.20;49.80;;;;;;10417236;28;20219;-14
2021/05/24 14:17:10;;;;;;;3.80;2.20;;;21.10;49.90;;;;;;10450714;28;20762;-16
2021/05/24 14:22:32;;;;;;;2.67;2.10;;;21.10;50.10;;;;;;10456870;28;20267;-15
2021/05/24 14:27:54;;;;;;;2.97;2.13;;;21.10;50.50;;;;;;10418618;28;20659;-13
2021/05/24 14:33:15;;;;;;;3.07;2.10;;;21.10;50.20;;;;;;10418633;28;20709;-16
2021/05/24 14:38:39;;;;;;;3.13;2.03;;;21.10;50.40;;;;;;10418348;28;20224;-16
2021/05/24 14:44:00;;;;;;;2.97;2.23;;;21.20;50.50;;;;;;10454264;28;20216;-15
2021/05/24 14:49:22;;;;;;;2.83;1.77;;;21.20;50.10;;;;;;10470810;28;20687;-16
2021/05/24 14:54:46;;;;;;;3.20;2.23;;;21.40;49.90;;;;;;10476317;28;20221;-15
2021/05/24 15:00:09;;;;;;;3.33;2.17;;;21.50;49.50;;;;;;10430719;28;20227;-15
2021/05/24 15:05:31;;;;;;;3.87;2.37;;;21.60;49.50;;;;;;10416366;28;20253;-15
2021/05/24 15:10:53;;;;;;;3.60;2.30;;;21.70;49.50;;;;;;10464397;28;20196;-14
2021/05/24 15:18:27;;;;;;;5.35;2.70;;;21.60;50.00;;;;;;10566995;27;20419;-27
2021/05/24 15:23:48;;;;;;;3.40;2.37;;;20.60;52.90;;;;;;10517571;28;20265;-27
2021/05/24 15:29:11;;;;;;;3.00;2.03;;;19.60;56.80;;;;;;10523497;28;20198;-27
2021/05/24 15:34:34;;;;;;;6.37;2.70;;;19.10;58.80;;;;;;10527435;28;20221;-28
2021/05/24 15:39:56;;;;;;;6.47;4.27;;;18.70;60.30;;;;;;10528483;28;20210;-25
2021/05/24 15:45:18;;;;;;;12.53;8.80;;;18.60;61.20;;;;;;10528822;28;20212;-28
2021/05/24 15:50:41;;;;;;;27.30;17.63;;;18.40;61.70;;;;;;10523477;28;20226;-25
2021/05/24 15:56:03;;;;;;;38.20;25.37;;;18.40;61.80;;;;;;10516178;28;20246;-25
2021/05/24 16:01:25;;;;;;;49.90;33.33;;;18.40;62.40;;;;;;10528706;28;20212;-26
2021/05/24 16:06:47;;;;;;;51.53;36.83;;;18.30;62.30;;;;;;10528539;28;20188;-24
2021/05/24 16:12:09;;;;;;;49.67;32.87;;;18.30;62.50;;;;;;10527909;28;20219;-25
2021/05/24 16:17:30;;;;;;;49.77;32.70;;;18.30;62.90;;;;;;10527612;28;20218;-26
2021/05/24 16:23:03;;;;;;;48.90;33.53;;;18.40;62.40;;;;;;10524352;28;20227;-26
2021/05/24 16:28:26;;;;;;;59.60;41.70;;;18.40;62.10;;;;;;10507198;28;20185;-26
2021/05/24 16:33:48;;;;;;;71.00;48.17;;;18.50;62.70;;;;;;10498485;28;20844;-25
2021/05/24 16:39:11;;;;;;;76.83;54.23;;;18.50;61.90;;;;;;10496421;28;20694;-25
2021/05/24 16:44:33;;;;;;;81.70;58.67;;;18.50;62.30;;;;;;10470210;28;20273;-23
2021/05/24 16:49:54;;;;;;;89.40;62.47;;;18.50;61.90;;;;;;10497457;28;20197;-25
2021/05/24 16:55:19;;;;;;;90.87;63.53;;;18.40;61.70;;;;;;10496482;28;20604;-25
2021/05/24 17:00:41;;;;;;;92.13;65.10;;;18.40;61.90;;;;;;10498522;28;20196;-30
2021/05/24 17:06:02;;;;;;;89.20;63.17;;;18.40;63.10;;;;;;10497275;28;20197;-26
2021/05/24 17:11:25;;;;;;;86.50;65.57;;;18.40;62.80;;;;;;10497232;28;20772;-23
2021/05/24 17:16:48;;;;;;;91.07;64.60;;;18.40;62.40;;;;;;10495606;28;20212;-26
2021/05/24 17:22:10;;;;;;;88.73;62.40;;;18.40;63.30;;;;;;10467857;28;20217;-29
2021/05/24 17:27:36;;;;;;;80.00;60.57;;;18.30;63.50;;;;;;10455780;28;20193;-26
2021/05/24 17:32:58;;;;;;;82.23;59.20;;;18.30;63.90;;;;;;10490492;28;20239;-25
2021/05/24 17:38:20;;;;;;;82.63;56.97;;;18.30;64.00;;;;;;10512690;28;20212;-28
2021/05/24 17:43:43;;;;;;;73.70;54.97;;;18.30;63.60;;;;;;10514006;28;21622;-24
2021/05/24 17:49:04;;;;;;;78.53;54.70;;;18.30;63.90;;;;;;10506392;28;20196;-26
2021/05/24 17:54:26;;;;;;;79.90;55.43;;;18.30;63.70;;;;;;10495352;28;20208;-25
2021/05/24 17:59:49;;;;;;;67.97;50.53;;;18.30;63.50;;;;;;10496105;28;20203;-27
2021/05/24 18:05:12;;;;;;;65.40;49.07;;;18.30;62.80;;;;;;10495596;28;20213;-29
2021/05/24 18:10:34;;;;;;;65.33;49.63;;;18.20;63.10;;;;;;10488109;28;20231;-26
2021/05/24 18:15:57;;;;;;;65.77;48.17;;;18.20;63.30;;;;;;10454282;28;20290;-24
2021/05/24 18:21:20;;;;;;;62.07;48.50;;;18.10;63.40;;;;;;10519689;22;20208;-27
2021/05/24 18:26:41;;;;;;;63.67;47.40;;;18.10;63.50;;;;;;10515219;28;20662;-25
2021/05/24 18:32:06;;;;;;;62.73;45.97;;;18.10;63.50;;;;;;10513909;28;20556;-23
2021/05/24 18:37:27;;;;;;;60.27;46.00;;;18.10;63.60;;;;;;10513898;28;20349;-24
2021/05/24 18:42:51;;;;;;;59.60;46.20;;;18.10;63.60;;;;;;10527717;28;20670;-24
2021/05/24 18:48:13;;;;;;;59.53;44.37;;;18.10;63.50;;;;;;10504465;28;20250;-24
2021/05/24 18:53:37;;;;;;;58.13;45.87;;;18.10;63.50;;;;;;10493005;28;20220;-24
2021/05/24 18:58:58;;;;;;;57.37;44.67;;;18.10;63.60;;;;;;10493466;28;20541;-24
2021/05/24 19:04:27;;;;;;;54.47;42.97;;;18.00;63.60;;;;;;10492637;28;20212;-23
2021/05/24 19:09:48;;;;;;;53.47;42.30;;;18.00;63.60;;;;;;10492627;28;20679;-23
2021/05/24 19:15:11;;;;;;;55.43;42.77;;;18.00;63.70;;;;;;10491991;28;20592;-25
2021/05/24 19:20:34;;;;;;;51.07;40.87;;;18.00;63.70;;;;;;10495965;28;20196;-24
2021/05/24 19:25:56;;;;;;;52.00;41.60;;;18.10;63.80;;;;;;10492411;28;20228;-23
2021/05/24 19:31:17;;;;;;;50.90;40.50;;;18.10;63.90;;;;;;10501426;28;20203;-23
2021/05/24 19:36:40;;;;;;;47.43;39.00;;;18.10;63.90;;;;;;10520828;28;20687;-23
2021/05/24 19:42:03;;;;;;;48.17;38.73;;;18.10;63.80;;;;;;10521431;28;20717;-25
2021/05/24 19:47:37;;;;;;;46.47;38.87;;;18.10;64.30;;;;;;10532522;28;20214;-24
2021/05/24 20:27:13;;;;;;;36.47;30.67;;;18.00;64.00;;;;;;10542455;28;20208;-25
2021/05/24 20:32:35;;;;;;;37.80;31.40;;;18.00;64.00;;;;;;10540488;28;20212;-23
2021/05/24 20:37:56;;;;;;;33.73;28.93;;;18.00;64.00;;;;;;10540112;28;20594;-23
2021/05/24 20:43:19;;;;;;;36.00;29.90;;;18.00;64.00;;;;;;10507692;28;20220;-24
2021/05/24 20:48:40;;;;;;;33.17;28.30;;;18.00;64.10;;;;;;10499600;28;20196;-24
2021/05/24 20:54:03;;;;;;;32.33;28.43;;;18.00;64.20;;;;;;10499061;28;20626;-23
2021/05/24 20:59:26;;;;;;;35.17;28.53;;;18.00;64.20;;;;;;10497778;28;20193;-23
2021/05/24 21:04:47;;;;;;;32.53;27.83;;;18.00;64.30;;;;;;10498835;28;20220;-23
2021/05/24 21:10:10;;;;;;;30.90;25.87;;;18.00;64.40;;;;;;10498741;28;20625;-23
2021/05/24 21:15:32;;;;;;;29.60;25.20;;;17.90;64.40;;;;;;10531324;28;20237;-26
2021/05/24 21:20:54;;;;;;;29.47;25.50;;;17.90;64.50;;;;;;10539735;28;20203;-26
2021/05/24 21:26:18;;;;;;;28.87;25.00;;;17.90;64.50;;;;;;10538650;28;20274;-24
2021/05/24 21:31:41;;;;;;;28.03;24.63;;;17.90;65.10;;;;;;10538074;28;20222;-23
2021/05/24 21:37:03;;;;;;;26.20;23.23;;;17.90;64.50;;;;;;10538693;28;20215;-24
2021/05/24 21:42:25;;;;;;;28.40;22.93;;;17.90;64.60;;;;;;10537766;28;20212;-23
2021/05/24 21:47:48;;;;;;;26.83;23.07;;;17.90;64.60;;;;;;10538102;28;20204;-24
2021/05/24 21:53:09;;;;;;;24.17;21.43;;;17.90;64.60;;;;;;10536618;28;20239;-23
2021/05/24 21:58:31;;;;;;;26.07;21.63;;;17.90;64.70;;;;;;10537467;28;20241;-23
2021/05/24 22:03:54;;;;;;;24.13;21.37;;;17.90;64.80;;;;;;10510835;28;20294;-24
2021/05/24 22:09:15;;;;;;;24.23;21.60;;;17.80;64.70;;;;;;10496225;28;20200;-24
2021/05/24 22:14:37;;;;;;;23.37;20.47;;;17.90;64.80;;;;;;10495254;28;20235;-23
2021/05/24 22:20:01;;;;;;;24.00;20.43;;;17.90;64.80;;;;;;10495530;28;20198;-23
2021/05/24 22:25:22;;;;;;;22.33;19.43;;;17.90;64.80;;;;;;10494250;28;20220;-25
2021/05/24 22:30:44;;;;;;;23.57;19.87;;;17.90;64.90;;;;;;10507709;28;20674;-23
2021/05/24 22:36:07;;;;;;;22.47;19.03;;;17.90;64.90;;;;;;10535029;28;20225;-23
2021/05/24 22:41:28;;;;;;;21.73;19.30;;;17.90;64.90;;;;;;10518856;28;20223;-23
2021/05/24 22:46:50;;;;;;;20.33;17.87;;;17.90;65.00;;;;;;10535136;28;20196;-24
2021/05/24 22:52:17;;;;;;;19.47;17.37;;;17.80;64.90;;;;;;10534759;28;20215;-21
2021/05/24 22:57:39;;;;;;;20.43;17.50;;;17.80;65.00;;;;;;10534821;28;20219;-24
2021/05/24 23:03:01;;;;;;;19.20;16.70;;;17.90;65.10;;;;;;10534873;28;20222;-23
2021/05/24 23:08:23;;;;;;;19.97;16.43;;;17.80;64.90;;;;;;10535252;28;20195;-23
2021/05/24 23:13:45;;;;;;;19.73;16.20;;;17.80;65.10;;;;;;10534382;28;20219;-23
2021/05/24 23:19:07;;;;;;;17.60;15.80;;;17.80;65.00;;;;;;10533648;28;20188;-23
2021/05/24 23:24:29;;;;;;;17.43;15.27;;;17.80;64.90;;;;;;10533995;28;20237;-23
2021/05/24 23:29:51;;;;;;;17.10;15.17;;;17.80;65.00;;;;;;10534099;28;20199;-24
2021/05/24 23:35:12;;;;;;;16.13;14.47;;;17.80;65.00;;;;;;10533915;28;20272;-23
2021/05/24 23:40:35;;;;;;;16.37;14.43;;;17.80;65.10;;;;;;10534639;28;20192;-24
2021/05/24 23:45:57;;;;;;;15.47;13.87;;;17.80;64.80;;;;;;10501449;28;20220;-23
2021/05/24 23:51:18;;;;;;;16.33;14.23;;;17.80;64.70;;;;;;10501471;28;20206;-23
2021/05/24 23:56:41;;;;;;;15.27;13.53;;;17.80;64.70;;;;;;10501396;28;20216;-26
